createdAt,value
2023-07-25T00:01:15.871Z,5.40
2023-07-25T00:03:44.167Z,5.60
2023-07-25T00:06:12.227Z,6.10
2023-07-25T00:08:40.496Z,5.20
2023-07-25T00:11:14.097Z,6.80
2023-07-25T00:13:42.098Z,6.10
2023-07-25T00:16:10.185Z,5.70
2023-07-25T00:18:38.482Z,5.70
2023-07-25T00:21:06.462Z,6.30
2023-07-25T00:23:34.522Z,6.20
2023-07-25T00:26:02.410Z,6.40
2023-07-25T00:28:30.347Z,5.50
2023-07-25T00:30:58.492Z,5.90
2023-07-25T00:33:26.493Z,6.60
2023-07-25T00:35:54.784Z,6.10
2023-07-25T00:38:24.251Z,7.00
2023-07-25T00:40:52.365Z,5.60
2023-07-25T00:43:20.396Z,6.80
2023-07-25T00:45:49.058Z,6.60
2023-07-25T00:48:17.589Z,7.10
2023-07-25T00:50:46.222Z,7.00
2023-07-25T00:53:15.734Z,6.30
2023-07-25T00:55:44.510Z,6.50
2023-07-25T00:58:12.603Z,6.90
2023-07-25T01:00:40.825Z,6.50
2023-07-25T01:03:09.193Z,6.80
2023-07-25T01:05:42.645Z,8.00
2023-07-25T01:08:10.809Z,6.30
2023-07-25T01:10:39.988Z,6.20
2023-07-25T01:13:08.112Z,6.90
2023-07-25T01:15:37.483Z,6.80
2023-07-25T01:18:07.181Z,6.70
2023-07-25T01:20:36.799Z,6.00
2023-07-25T01:23:07.345Z,5.90
2023-07-25T01:25:36.578Z,6.00
2023-07-25T01:28:04.850Z,5.20
2023-07-25T01:30:33.161Z,6.10
2023-07-25T01:33:01.204Z,5.40
2023-07-25T01:35:29.244Z,5.80
2023-07-25T01:37:57.275Z,5.70
2023-07-25T01:40:25.233Z,5.60
2023-07-25T01:42:53.482Z,5.70
2023-07-25T01:45:21.453Z,5.80
2023-07-25T01:47:49.912Z,6.40
2023-07-25T01:50:18.542Z,6.40
2023-07-25T01:52:46.599Z,6.10
2023-07-25T01:55:14.664Z,5.40
2023-07-25T01:57:42.532Z,6.70
2023-07-25T02:00:11.296Z,5.90
2023-07-25T02:02:42.600Z,6.70
2023-07-25T02:05:10.875Z,6.50
2023-07-25T02:07:39.110Z,5.60
2023-07-25T02:10:08.015Z,6.30
2023-07-25T02:12:35.966Z,6.20
2023-07-25T02:15:04.483Z,6.10
2023-07-25T02:17:32.742Z,5.70
2023-07-25T02:20:00.741Z,6.10
2023-07-25T02:22:28.878Z,7.00
2023-07-25T02:24:57.828Z,7.70
2023-07-25T02:27:25.789Z,8.40
2023-07-25T02:29:53.979Z,6.60
2023-07-25T02:32:22.444Z,5.60
2023-07-25T02:34:50.762Z,7.10
2023-07-25T02:37:18.903Z,6.10
2023-07-25T02:39:47.241Z,5.80
2023-07-25T02:42:15.385Z,6.30
2023-07-25T02:44:43.465Z,6.00
2023-07-25T02:47:11.454Z,6.00
2023-07-25T02:49:39.936Z,6.00
2023-07-25T02:52:08.598Z,6.30
2023-07-25T02:54:36.575Z,15.50
2023-07-25T02:57:05.767Z,15.60
2023-07-25T02:59:33.778Z,15.40
2023-07-25T03:02:01.806Z,13.50
2023-07-25T03:04:30.200Z,14.60
2023-07-25T03:06:58.481Z,11.80
2023-07-25T03:09:26.629Z,13.50
2023-07-25T03:11:54.796Z,12.00
2023-07-25T03:14:22.894Z,10.20
2023-07-25T03:16:51.283Z,7.60
2023-07-25T03:19:19.518Z,5.90
2023-07-25T03:21:47.600Z,6.80
2023-07-25T03:24:15.748Z,6.40
2023-07-25T03:26:43.991Z,6.30
2023-07-25T03:29:12.209Z,6.40
2023-07-25T03:31:40.611Z,5.80
2023-07-25T03:34:08.968Z,6.70
2023-07-25T03:36:37.244Z,6.80
2023-07-25T03:39:05.351Z,5.80
2023-07-25T03:41:33.670Z,6.20
2023-07-25T03:44:01.991Z,6.20
2023-07-25T03:46:30.079Z,5.60
2023-07-25T03:48:59.474Z,6.10
2023-07-25T03:51:27.694Z,5.20
2023-07-25T03:53:55.888Z,5.70
2023-07-25T03:56:23.999Z,6.50
2023-07-25T03:58:51.997Z,6.70
2023-07-25T04:01:20.045Z,6.90
2023-07-25T04:03:48.218Z,6.20
2023-07-25T04:06:16.384Z,6.70
2023-07-25T04:08:44.314Z,6.40
2023-07-25T04:11:14.368Z,6.70
2023-07-25T04:13:42.425Z,6.90
2023-07-25T04:16:10.627Z,5.20
2023-07-25T04:18:38.744Z,6.80
2023-07-25T04:21:06.730Z,6.90
2023-07-25T04:23:34.684Z,6.40
2023-07-25T04:26:02.758Z,6.70
2023-07-25T04:28:32.659Z,6.50
2023-07-25T04:31:01.087Z,6.90
2023-07-25T04:33:29.287Z,6.20
2023-07-25T04:35:57.392Z,6.60
2023-07-25T04:38:25.524Z,7.50
2023-07-25T04:40:53.509Z,6.80
2023-07-25T04:43:21.654Z,6.60
2023-07-25T04:45:54.532Z,6.70
2023-07-25T04:48:23.308Z,7.20
2023-07-25T04:50:51.383Z,5.40
2023-07-25T04:53:19.574Z,5.60
2023-07-25T04:55:47.718Z,6.80
2023-07-25T04:58:15.685Z,7.50
2023-07-25T05:00:43.606Z,6.10
2023-07-25T05:03:11.753Z,7.30
2023-07-25T05:05:41.282Z,7.10
2023-07-25T05:08:09.175Z,7.00
2023-07-25T05:10:37.167Z,6.20
2023-07-25T05:13:05.187Z,7.00
2023-07-25T05:15:33.097Z,6.90
2023-07-25T05:18:01.194Z,6.80
2023-07-25T05:20:29.439Z,6.70
2023-07-25T05:22:57.530Z,6.70
2023-07-25T05:25:25.599Z,6.30
2023-07-25T05:27:53.632Z,7.40
2023-07-25T05:30:21.601Z,7.80
2023-07-25T05:32:51.022Z,5.50
2023-07-25T05:35:19.265Z,7.40
2023-07-25T05:37:47.155Z,6.20
2023-07-25T05:40:15.371Z,7.60
2023-07-25T05:42:43.306Z,7.00
2023-07-25T05:45:12.020Z,5.90
2023-07-25T05:47:40.303Z,7.10
2023-07-25T05:50:09.307Z,6.10
2023-07-25T05:52:37.383Z,6.80
2023-07-25T05:55:05.994Z,6.80
2023-07-25T05:57:34.084Z,7.80
2023-07-25T06:00:02.298Z,5.60
2023-07-25T06:02:33.128Z,5.30
2023-07-25T06:05:01.210Z,6.80
2023-07-25T06:07:29.246Z,6.50
2023-07-25T06:09:57.410Z,6.90
2023-07-25T06:12:25.424Z,6.10
2023-07-25T06:14:53.546Z,7.50
2023-07-25T06:17:21.599Z,7.30
2023-07-25T06:19:49.900Z,7.60
2023-07-25T06:22:18.004Z,7.00
2023-07-25T06:24:47.722Z,6.60
2023-07-25T06:27:15.755Z,5.20
2023-07-25T06:29:43.679Z,7.40
2023-07-25T06:32:11.824Z,6.70
2023-07-25T06:34:39.892Z,6.40
2023-07-25T06:37:08.271Z,6.60
2023-07-25T06:39:36.299Z,7.60
2023-07-25T06:42:05.105Z,6.50
2023-07-25T06:44:34.611Z,6.90
2023-07-25T06:47:02.618Z,8.00
2023-07-25T06:49:31.256Z,7.80
2023-07-25T06:52:01.445Z,6.70
2023-07-25T06:54:29.521Z,7.60
2023-07-25T06:56:57.730Z,6.40
2023-07-25T06:59:26.111Z,6.00
2023-07-25T07:01:54.057Z,6.10
2023-07-25T07:04:21.984Z,7.10
2023-07-25T07:06:49.915Z,6.10
2023-07-25T07:09:18.075Z,6.90
2023-07-25T07:11:47.294Z,6.00
2023-07-25T07:14:15.308Z,5.40
2023-07-25T07:16:43.269Z,5.20
2023-07-25T07:19:11.270Z,7.40
2023-07-25T07:21:39.535Z,5.60
2023-07-25T07:24:07.810Z,6.10
2023-07-25T07:26:35.716Z,5.70
2023-07-25T07:29:03.768Z,6.10
2023-07-25T07:31:32.625Z,5.90
2023-07-25T07:34:16.522Z,5.50
2023-07-25T07:36:45.800Z,5.80
2023-07-25T07:39:13.879Z,5.40
2023-07-25T07:41:41.962Z,6.40
2023-07-25T07:44:09.923Z,6.10
2023-07-25T07:46:38.193Z,6.50
2023-07-25T07:49:06.302Z,5.90
2023-07-25T07:51:35.965Z,5.50
2023-07-25T07:54:03.907Z,5.60
2023-07-25T07:56:32.243Z,5.70
2023-07-25T07:59:00.282Z,5.00
2023-07-25T08:01:28.833Z,5.40
2023-07-25T08:03:57.566Z,4.70
2023-07-25T08:06:25.542Z,5.00
2023-07-25T08:08:53.700Z,5.20
2023-07-25T08:11:21.667Z,4.90
2023-07-25T08:13:49.833Z,5.00
2023-07-25T08:16:17.868Z,4.30
2023-07-25T08:18:45.982Z,4.80
2023-07-25T08:21:14.125Z,4.80
2023-07-25T08:23:42.447Z,4.50
2023-07-25T08:26:10.908Z,5.20
2023-07-25T08:28:39.296Z,4.50
2023-07-25T08:31:07.748Z,5.00
2023-07-25T08:33:36.062Z,5.00
2023-07-25T08:36:04.763Z,5.00
2023-07-25T08:38:34.186Z,4.60
2023-07-25T08:41:10.096Z,4.70
2023-07-25T08:43:41.287Z,5.40
2023-07-25T08:46:11.783Z,4.70
2023-07-25T08:48:42.145Z,4.70
2023-07-25T08:51:24.092Z,4.80
2023-07-25T08:54:26.298Z,5.00
2023-07-25T08:56:55.030Z,4.60
2023-07-25T08:59:23.970Z,5.30
2023-07-25T09:01:54.024Z,5.40
2023-07-25T09:04:24.885Z,4.90
2023-07-25T09:06:53.904Z,4.70
2023-07-25T09:09:23.234Z,4.70
2023-07-25T09:11:51.557Z,4.70
2023-07-25T09:14:19.729Z,3.70
2023-07-25T09:16:48.549Z,4.20
2023-07-25T09:19:16.924Z,4.70
2023-07-25T09:21:59.025Z,3.90
2023-07-25T09:24:41.024Z,4.60
2023-07-25T09:27:20.547Z,4.30
2023-07-25T09:29:53.237Z,4.00
2023-07-25T09:32:27.285Z,4.20
2023-07-25T09:35:07.895Z,4.00
2023-07-25T09:37:36.156Z,4.00
2023-07-25T09:40:13.735Z,3.80
2023-07-25T09:45:13.064Z,4.30
2023-07-25T09:47:42.319Z,4.50
2023-07-25T09:50:10.705Z,3.60
2023-07-25T09:52:43.770Z,4.40
2023-07-25T09:55:11.934Z,4.50
2023-07-25T09:57:40.385Z,4.20
2023-07-25T10:00:09.207Z,3.90
2023-07-25T10:02:38.420Z,4.00
2023-07-25T10:05:08.638Z,4.50
2023-07-25T10:07:39.188Z,4.30
2023-07-25T10:10:08.705Z,4.50
2023-07-25T10:12:36.714Z,4.20
2023-07-25T10:15:05.629Z,4.90
2023-07-25T10:17:33.838Z,4.90
2023-07-25T10:20:09.447Z,4.90
2023-07-25T10:22:40.769Z,5.20
2023-07-25T10:25:11.316Z,5.00
2023-07-25T10:27:41.344Z,5.10
2023-07-25T10:30:29.392Z,4.50
2023-07-25T10:33:04.023Z,4.90
2023-07-25T10:35:43.012Z,4.20
2023-07-25T10:38:12.689Z,4.80
2023-07-25T10:40:58.636Z,4.40
2023-07-25T10:43:46.231Z,4.20
2023-07-25T10:46:22.233Z,4.90
2023-07-25T10:48:52.940Z,4.90
2023-07-25T10:51:22.994Z,4.00
2023-07-25T10:54:15.499Z,3.80
2023-07-25T10:57:16.380Z,4.10
2023-07-25T11:00:11.105Z,4.70
2023-07-25T11:02:42.093Z,4.80
2023-07-25T11:05:12.934Z,4.80
2023-07-25T11:07:48.831Z,4.80
2023-07-25T11:10:24.994Z,4.30
2023-07-25T11:13:01.411Z,4.80
2023-07-25T11:15:46.594Z,4.70
2023-07-25T11:18:15.553Z,5.20
2023-07-25T11:20:43.565Z,4.20
2023-07-25T11:23:12.691Z,4.30
2023-07-25T11:25:40.960Z,4.20
2023-07-25T11:28:09.168Z,4.70
2023-07-25T11:30:44.266Z,4.40
2023-07-25T11:33:12.546Z,5.00
2023-07-25T11:35:42.373Z,4.60
2023-07-25T11:38:11.488Z,4.80
2023-07-25T11:40:42.081Z,4.70
2023-07-25T11:43:13.924Z,5.00
2023-07-25T11:45:43.415Z,5.20
2023-07-25T11:48:15.441Z,5.30
2023-07-25T11:50:44.584Z,5.40
2023-07-25T11:53:12.837Z,4.50
2023-07-25T11:55:42.472Z,4.70
2023-07-25T11:58:17.570Z,3.80
2023-07-25T12:00:49.845Z,5.00
2023-07-25T12:03:19.743Z,4.80
2023-07-25T12:05:59.165Z,5.10
2023-07-25T12:08:41.688Z,4.90
2023-07-25T12:11:12.373Z,4.70
2023-07-25T12:13:52.338Z,4.30
2023-07-25T12:16:33.723Z,4.20
2023-07-25T12:19:12.982Z,5.10
2023-07-25T12:21:45.614Z,5.00
2023-07-25T12:24:17.686Z,5.30
2023-07-25T12:26:47.862Z,5.00
2023-07-25T12:29:18.179Z,4.80
2023-07-25T12:31:46.176Z,4.60
2023-07-25T12:34:19.860Z,4.90
2023-07-25T12:36:49.058Z,4.70
2023-07-25T12:39:17.040Z,4.60
2023-07-25T12:41:46.154Z,5.30
2023-07-25T12:44:14.201Z,4.30
2023-07-25T12:46:42.191Z,4.50
2023-07-25T12:49:10.328Z,4.90
2023-07-25T12:51:38.566Z,5.40
2023-07-25T12:54:06.568Z,5.70
2023-07-25T12:56:34.975Z,5.50
2023-07-25T12:59:03.349Z,3.90
2023-07-25T13:01:31.686Z,5.10
2023-07-25T13:04:00.130Z,4.50
2023-07-25T13:06:28.322Z,5.20
2023-07-25T13:08:56.552Z,5.30
2023-07-25T13:11:24.582Z,5.70
2023-07-25T13:13:53.075Z,5.70
2023-07-25T13:16:21.100Z,5.20
2023-07-25T13:18:49.145Z,5.00
2023-07-25T13:21:17.150Z,5.50
2023-07-25T13:23:45.076Z,5.10
2023-07-25T13:26:13.216Z,5.80
2023-07-25T13:28:41.241Z,5.90
2023-07-25T13:31:09.359Z,5.90
2023-07-25T13:33:37.639Z,5.70
2023-07-25T13:36:05.997Z,6.10
2023-07-25T13:38:33.988Z,5.80
2023-07-25T13:41:01.960Z,5.50
2023-07-25T13:43:29.952Z,5.70
2023-07-25T13:45:58.312Z,6.40
2023-07-25T13:48:26.309Z,5.90
2023-07-25T13:50:55.217Z,5.70
2023-07-25T13:53:23.714Z,5.20
2023-07-25T13:55:52.641Z,5.50
2023-07-25T13:58:23.918Z,5.70
2023-07-25T14:00:52.840Z,6.80
2023-07-25T14:03:21.005Z,6.00
2023-07-25T14:05:49.103Z,5.80
2023-07-25T14:08:17.094Z,5.70
2023-07-25T14:10:45.212Z,5.60
2023-07-25T14:13:13.329Z,5.60
2023-07-25T14:15:42.301Z,5.50
2023-07-25T14:18:10.419Z,5.40
2023-07-25T14:20:39.522Z,5.80
2023-07-25T14:23:08.454Z,5.30
2023-07-25T14:25:36.400Z,5.40
2023-07-25T14:28:06.336Z,6.20
2023-07-25T14:30:35.418Z,6.20
2023-07-25T14:33:03.746Z,6.10
2023-07-25T14:35:31.979Z,5.10
2023-07-25T14:38:01.985Z,4.80
2023-07-25T14:40:30.351Z,6.10
2023-07-25T14:42:58.750Z,6.10
2023-07-25T14:45:26.870Z,5.40
2023-07-25T14:47:55.812Z,5.90
2023-07-25T14:50:24.525Z,5.60
2023-07-25T14:52:52.759Z,4.90
2023-07-25T14:55:21.264Z,6.30
2023-07-25T14:57:49.385Z,5.50
2023-07-25T15:00:18.123Z,5.40
2023-07-25T15:02:46.250Z,5.80
2023-07-25T15:05:14.789Z,6.30
2023-07-25T15:07:42.937Z,5.90
2023-07-25T15:10:11.741Z,6.90
2023-07-25T15:12:39.823Z,6.10
2023-07-25T15:15:08.673Z,6.10
2023-07-25T15:17:36.985Z,6.60
2023-07-25T15:20:10.442Z,6.70
2023-07-25T15:22:38.859Z,7.10
2023-07-25T15:25:07.463Z,7.60
2023-07-25T15:27:35.648Z,11.40
2023-07-25T15:30:04.320Z,9.60
2023-07-25T15:32:32.939Z,8.60
2023-07-25T15:35:01.763Z,7.60
2023-07-25T15:37:29.727Z,7.40
2023-07-25T15:39:58.216Z,9.40
2023-07-25T15:42:26.179Z,9.00
2023-07-25T15:44:54.102Z,8.60
2023-07-25T15:47:22.119Z,8.10
2023-07-25T15:49:50.294Z,8.70
2023-07-25T15:52:18.254Z,7.10
2023-07-25T15:54:46.214Z,6.80
2023-07-25T15:57:14.231Z,6.60
2023-07-25T15:59:42.263Z,5.70
2023-07-25T16:02:10.217Z,6.90
2023-07-25T16:04:38.608Z,5.90
2023-07-25T16:07:06.599Z,6.00
2023-07-25T16:09:34.645Z,6.20
2023-07-25T16:12:02.633Z,5.80
2023-07-25T16:14:30.610Z,7.10
2023-07-25T16:16:58.768Z,7.10
2023-07-25T16:19:27.192Z,6.00
2023-07-25T16:21:55.216Z,6.50
2023-07-25T16:24:23.252Z,5.40
2023-07-25T16:26:51.467Z,5.80
2023-07-25T16:29:19.610Z,5.30
2023-07-25T16:31:50.859Z,4.90
2023-07-25T16:34:19.649Z,4.00
2023-07-25T16:36:47.750Z,4.10
2023-07-25T16:39:15.887Z,3.40
2023-07-25T16:41:45.244Z,3.60
2023-07-25T16:44:13.225Z,3.60
2023-07-25T16:46:41.929Z,3.80
2023-07-25T16:49:10.085Z,3.60
2023-07-25T16:51:38.005Z,3.40
2023-07-25T16:54:06.084Z,3.40
2023-07-25T16:56:34.713Z,3.60
2023-07-25T16:59:02.885Z,3.80
2023-07-25T17:01:31.191Z,6.00
2023-07-25T17:03:59.567Z,4.90
2023-07-25T17:06:27.533Z,4.20
2023-07-25T17:08:56.562Z,3.40
2023-07-25T17:11:24.988Z,3.40
2023-07-25T17:13:53.060Z,3.20
2023-07-25T17:16:21.227Z,2.80
2023-07-25T17:18:49.340Z,3.10
2023-07-25T17:21:23.443Z,2.70
2023-07-25T17:23:58.186Z,2.60
2023-07-25T17:26:26.464Z,2.40
2023-07-25T17:28:54.384Z,2.50
2023-07-25T17:31:22.556Z,2.70
2023-07-25T17:33:50.647Z,2.50
2023-07-25T17:36:18.904Z,3.00
2023-07-25T17:38:46.914Z,3.30
2023-07-25T17:41:14.947Z,2.90
2023-07-25T17:43:42.958Z,3.00
2023-07-25T17:46:11.089Z,3.30
2023-07-25T17:48:39.358Z,3.70
2023-07-25T17:51:07.397Z,2.70
2023-07-25T17:53:35.362Z,3.20
2023-07-25T17:56:03.622Z,2.90
2023-07-25T17:58:31.737Z,2.80
2023-07-25T18:00:59.988Z,3.20
2023-07-25T18:03:28.262Z,2.50
2023-07-25T18:05:56.398Z,2.90
2023-07-25T18:08:24.589Z,2.80
2023-07-25T18:10:52.568Z,2.70
2023-07-25T18:13:22.780Z,3.10
2023-07-25T18:15:51.465Z,3.00
2023-07-25T18:18:20.117Z,3.10
2023-07-25T18:20:48.734Z,3.90
2023-07-25T18:23:16.800Z,3.60
2023-07-25T18:25:46.016Z,3.60
2023-07-25T18:28:14.036Z,3.20
2023-07-25T18:30:42.484Z,3.30
2023-07-25T18:33:12.261Z,3.20
2023-07-25T18:35:41.448Z,2.90
2023-07-25T18:38:10.263Z,3.20
2023-07-25T18:40:38.276Z,3.20
2023-07-25T18:43:06.626Z,3.40
2023-07-25T18:45:34.604Z,3.70
2023-07-25T18:48:02.537Z,3.20
2023-07-25T18:50:30.437Z,3.40
2023-07-25T18:52:58.435Z,3.70
2023-07-25T18:55:26.461Z,3.40
2023-07-25T18:57:54.628Z,4.30
2023-07-25T19:00:22.779Z,3.50
2023-07-25T19:02:51.151Z,3.30
2023-07-25T19:05:19.325Z,3.10
2023-07-25T19:07:47.427Z,2.80
2023-07-25T19:10:17.028Z,3.00
2023-07-25T19:12:46.774Z,3.00
2023-07-25T19:15:14.942Z,3.20
2023-07-25T19:17:45.002Z,3.00
2023-07-25T19:20:13.297Z,3.60
2023-07-25T19:22:41.325Z,3.00
2023-07-25T19:25:10.704Z,3.80
2023-07-25T19:27:38.669Z,3.40
2023-07-25T19:30:07.418Z,2.90
2023-07-25T19:32:35.415Z,3.60
2023-07-25T19:35:05.224Z,3.00
2023-07-25T19:37:36.343Z,3.00
2023-07-25T19:40:05.382Z,2.90
2023-07-25T19:42:33.780Z,2.80
2023-07-25T19:45:04.376Z,2.90
2023-07-25T19:47:32.445Z,3.80
2023-07-25T19:50:00.508Z,3.60
2023-07-25T19:52:28.447Z,2.90
2023-07-25T19:54:56.636Z,3.40
2023-07-25T19:57:24.813Z,3.10
2023-07-25T19:59:52.711Z,3.10
2023-07-25T20:02:20.840Z,3.20
2023-07-25T20:04:48.924Z,3.10
2023-07-25T20:07:17.028Z,2.90
2023-07-25T20:09:45.069Z,2.60
2023-07-25T20:12:12.966Z,3.40
2023-07-25T20:14:40.930Z,2.80
2023-07-25T20:17:08.854Z,3.30
2023-07-25T20:19:36.837Z,3.40
2023-07-25T20:22:05.255Z,3.50
2023-07-25T20:24:33.419Z,3.50
2023-07-25T20:27:01.653Z,3.20
2023-07-25T20:29:30.068Z,3.00
2023-07-25T20:31:58.010Z,3.40
2023-07-25T20:34:26.131Z,3.90
2023-07-25T20:36:54.245Z,3.70
2023-07-25T20:39:22.419Z,3.30
2023-07-25T20:41:51.625Z,3.70
2023-07-25T20:44:19.669Z,3.70
2023-07-25T20:46:47.563Z,3.60
2023-07-25T20:49:15.718Z,3.10
2023-07-25T20:51:43.926Z,3.30
2023-07-25T20:54:12.024Z,3.60
2023-07-25T20:56:40.061Z,3.60
2023-07-25T20:59:08.141Z,3.70
2023-07-25T21:01:36.174Z,3.80
2023-07-25T21:04:04.836Z,4.40
2023-07-25T21:06:33.663Z,2.80
2023-07-25T21:09:01.955Z,4.20
2023-07-25T21:11:30.034Z,3.30
2023-07-25T21:13:58.273Z,3.00
2023-07-25T21:16:26.434Z,4.30
2023-07-25T21:18:54.631Z,4.70
2023-07-25T21:21:22.800Z,4.20
2023-07-25T21:23:50.975Z,4.00
2023-07-25T21:26:18.980Z,4.50
2023-07-25T21:28:47.116Z,3.80
2023-07-25T21:31:15.156Z,3.80
2023-07-25T21:33:43.329Z,3.40
2023-07-25T21:36:15.123Z,3.90
2023-07-25T21:38:43.316Z,4.30
2023-07-25T21:41:16.853Z,4.50
2023-07-25T21:43:46.282Z,4.40
2023-07-25T21:46:14.719Z,4.30
2023-07-25T21:48:42.677Z,3.70
2023-07-25T21:51:11.552Z,3.70
2023-07-25T21:53:39.763Z,3.50
2023-07-25T21:56:07.823Z,3.40
2023-07-25T21:58:35.829Z,3.60
2023-07-25T22:01:04.760Z,3.60
2023-07-25T22:03:33.032Z,3.90
2023-07-25T22:06:01.548Z,3.40
2023-07-25T22:08:29.763Z,4.20
2023-07-25T22:10:57.997Z,4.10
2023-07-25T22:13:26.056Z,3.50
2023-07-25T22:15:54.599Z,3.80
2023-07-25T22:18:22.758Z,3.80
2023-07-25T22:20:52.956Z,4.70
2023-07-25T22:23:21.914Z,3.70
2023-07-25T22:25:50.279Z,3.30
2023-07-25T22:28:18.539Z,4.40
2023-07-25T22:30:46.704Z,3.90
2023-07-25T22:33:14.804Z,4.50
2023-07-25T22:35:42.959Z,4.70
2023-07-25T22:38:11.431Z,3.90
2023-07-25T22:40:39.976Z,3.50
2023-07-25T22:43:07.979Z,4.00
2023-07-25T22:45:35.938Z,3.40
2023-07-25T22:48:04.094Z,3.50
2023-07-25T22:50:32.151Z,4.20
2023-07-25T22:53:00.272Z,4.20
2023-07-25T22:55:28.362Z,4.50
2023-07-25T22:57:56.271Z,5.10
2023-07-25T23:00:24.389Z,3.70
2023-07-25T23:02:53.262Z,4.30
2023-07-25T23:05:21.535Z,4.10
2023-07-25T23:07:49.718Z,3.70
2023-07-25T23:10:17.892Z,3.40
2023-07-25T23:12:45.888Z,3.90
2023-07-25T23:15:14.748Z,3.30
2023-07-25T23:17:42.768Z,4.10
2023-07-25T23:20:11.924Z,4.00
2023-07-25T23:22:39.903Z,5.20
2023-07-25T23:25:08.112Z,4.30
2023-07-25T23:27:36.166Z,3.60
2023-07-25T23:30:04.723Z,4.90
2023-07-25T23:32:32.721Z,4.50
2023-07-25T23:35:00.794Z,4.30
2023-07-25T23:37:28.783Z,3.50
2023-07-25T23:39:56.809Z,3.60
2023-07-25T23:42:24.739Z,3.70
2023-07-25T23:44:52.929Z,4.00
2023-07-25T23:47:20.890Z,4.60
2023-07-25T23:49:48.984Z,4.10
2023-07-25T23:52:17.036Z,4.10
2023-07-25T23:54:45.222Z,3.80
2023-07-25T23:57:13.254Z,4.40
2023-07-25T23:59:41.280Z,3.40
